sensor_id;sensor_type;location;lat;lon;timestamp;pressure;altitude;pressure_sealevel;temperature;humidity
62617;BME280;62539;51.190;6.808;2023-05-08T00:00:46;101680.38;;;22.48;55.78
62617;BME280;62539;51.190;6.808;2023-05-08T00:03:12;101676.91;;;22.47;55.62
62617;BME280;62539;51.190;6.808;2023-05-08T00:05:40;101676.00;;;22.46;55.33
62617;BME280;62539;51.190;6.808;2023-05-08T00:08:06;101688.38;;;22.46;55.43
62617;BME280;62539;51.190;6.808;2023-05-08T00:10:32;101677.84;;;22.44;55.66
62617;BME280;62539;51.190;6.808;2023-05-08T00:12:57;101686.66;;;22.43;55.46
62617;BME280;62539;51.190;6.808;2023-05-08T00:15:23;101681.38;;;22.43;55.48
62617;BME280;62539;51.190;6.808;2023-05-08T00:17:48;101691.13;;;22.43;55.66
62617;BME280;62539;51.190;6.808;2023-05-08T00:20:14;101687.66;;;22.41;55.79
62617;BME280;62539;51.190;6.808;2023-05-08T00:22:39;101682.38;;;22.41;55.74
62617;BME280;62539;51.190;6.808;2023-05-08T00:25:05;101679.78;;;22.39;55.53
62617;BME280;62539;51.190;6.808;2023-05-08T00:27:31;101678.94;;;22.39;55.59
62617;BME280;62539;51.190;6.808;2023-05-08T00:29:57;101682.47;;;22.38;55.44
62617;BME280;62539;51.190;6.808;2023-05-08T00:32:23;101685.13;;;22.38;55.38
62617;BME280;62539;51.190;6.808;2023-05-08T00:34:49;101684.31;;;22.36;55.68
62617;BME280;62539;51.190;6.808;2023-05-08T00:37:15;101694.03;;;22.35;55.61
62617;BME280;62539;51.190;6.808;2023-05-08T00:39:40;101688.81;;;22.34;55.67
62617;BME280;62539;51.190;6.808;2023-05-08T00:42:06;101687.88;;;22.35;55.61
62617;BME280;62539;51.190;6.808;2023-05-08T00:44:31;101692.38;;;22.32;55.60
62617;BME280;62539;51.190;6.808;2023-05-08T00:46:57;101689.75;;;22.31;55.40
62617;BME280;62539;51.190;6.808;2023-05-08T00:49:23;101688.00;;;22.31;55.47
62617;BME280;62539;51.190;6.808;2023-05-08T00:51:50;101691.56;;;22.30;55.41
62617;BME280;62539;51.190;6.808;2023-05-08T00:54:19;101692.47;;;22.29;55.72
62617;BME280;62539;51.190;6.808;2023-05-08T00:56:44;101681.09;;;22.27;55.74
62617;BME280;62539;51.190;6.808;2023-05-08T00:59:13;101696.94;;;22.27;55.94
62617;BME280;62539;51.190;6.808;2023-05-08T01:01:42;101693.44;;;22.27;55.79
62617;BME280;62539;51.190;6.808;2023-05-08T01:04:07;101697.00;;;22.26;55.46
62617;BME280;62539;51.190;6.808;2023-05-08T01:06:33;101691.78;;;22.24;55.75
62617;BME280;62539;51.190;6.808;2023-05-08T01:09:32;101696.25;;;22.22;55.85
62617;BME280;62539;51.190;6.808;2023-05-08T01:12:14;101698.03;;;22.22;55.85
62617;BME280;62539;51.190;6.808;2023-05-08T01:14:54;101702.56;;;22.18;55.88
62617;BME280;62539;51.190;6.808;2023-05-08T01:17:44;101699.13;;;22.16;55.75
62617;BME280;62539;51.190;6.808;2023-05-08T01:20:48;101695.66;;;22.14;55.97
62617;BME280;62539;51.190;6.808;2023-05-08T01:23:52;101698.34;;;22.12;55.87
62617;BME280;62539;51.190;6.808;2023-05-08T01:27:09;101694.88;;;22.10;55.92
62617;BME280;62539;51.190;6.808;2023-05-08T01:33:16;101703.81;;;22.08;56.00
62617;BME280;62539;51.190;6.808;2023-05-08T01:36:25;101707.41;;;22.05;56.11
62617;BME280;62539;51.190;6.808;2023-05-08T01:39:11;101705.66;;;22.04;55.81
62617;BME280;62539;51.190;6.808;2023-05-08T01:42:03;101700.47;;;22.02;56.23
62617;BME280;62539;51.190;6.808;2023-05-08T01:44:35;101706.56;;;22.05;56.01
62617;BME280;62539;51.190;6.808;2023-05-08T01:47:06;101710.16;;;22.02;55.77
62617;BME280;62539;51.190;6.808;2023-05-08T01:49:39;101708.38;;;22.02;55.92
62617;BME280;62539;51.190;6.808;2023-05-08T01:52:12;101716.31;;;22.02;56.10
62617;BME280;62539;51.190;6.808;2023-05-08T01:54:49;101716.31;;;22.02;55.86
62617;BME280;62539;51.190;6.808;2023-05-08T01:57:23;101721.63;;;22.01;55.89
62617;BME280;62539;51.190;6.808;2023-05-08T01:59:55;101718.13;;;22.00;56.09
62617;BME280;62539;51.190;6.808;2023-05-08T02:02:25;101720.78;;;22.00;56.00
62617;BME280;62539;51.190;6.808;2023-05-08T02:04:54;101725.19;;;22.00;55.86
62617;BME280;62539;51.190;6.808;2023-05-08T02:07:21;101715.50;;;22.00;55.82
62617;BME280;62539;51.190;6.808;2023-05-08T02:09:48;101719.91;;;22.00;56.22
62617;BME280;62539;51.190;6.808;2023-05-08T02:12:16;101724.34;;;21.99;56.18
62617;BME280;62539;51.190;6.808;2023-05-08T02:14:44;101719.06;;;21.99;56.10
62617;BME280;62539;51.190;6.808;2023-05-08T02:17:15;101729.63;;;21.99;56.08
62617;BME280;62539;51.190;6.808;2023-05-08T02:19:42;101725.25;;;21.98;55.90
62617;BME280;62539;51.190;6.808;2023-05-08T02:22:09;101734.09;;;21.97;55.87
62617;BME280;62539;51.190;6.808;2023-05-08T02:24:37;101726.16;;;21.97;56.23
62617;BME280;62539;51.190;6.808;2023-05-08T02:27:04;101733.19;;;21.98;55.90
62617;BME280;62539;51.190;6.808;2023-05-08T02:29:32;101732.38;;;21.96;55.96
62617;BME280;62539;51.190;6.808;2023-05-08T02:32:00;101734.13;;;21.96;56.00
62617;BME280;62539;51.190;6.808;2023-05-08T02:34:29;101741.22;;;21.95;56.14
62617;BME280;62539;51.190;6.808;2023-05-08T02:36:56;101747.41;;;21.94;56.08
62617;BME280;62539;51.190;6.808;2023-05-08T02:39:29;101749.13;;;21.95;55.81
62617;BME280;62539;51.190;6.808;2023-05-08T02:41:58;101742.13;;;21.94;55.89
62617;BME280;62539;51.190;6.808;2023-05-08T02:44:24;101746.53;;;21.94;56.12
62617;BME280;62539;51.190;6.808;2023-05-08T02:47:01;101741.31;;;21.92;56.16
62617;BME280;62539;51.190;6.808;2023-05-08T02:49:55;101739.63;;;21.90;55.88
62617;BME280;62539;51.190;6.808;2023-05-08T02:52:29;101740.50;;;21.90;55.80
62617;BME280;62539;51.190;6.808;2023-05-08T02:55:07;101744.91;;;21.90;56.20
62617;BME280;62539;51.190;6.808;2023-05-08T02:57:38;101741.41;;;21.89;56.31
62617;BME280;62539;51.190;6.808;2023-05-08T03:00:28;101731.75;;;21.88;56.02
62617;BME280;62539;51.190;6.808;2023-05-08T03:03:04;101732.69;;;21.87;56.07
62617;BME280;62539;51.190;6.808;2023-05-08T03:05:36;101729.16;;;21.86;56.04
62617;BME280;62539;51.190;6.808;2023-05-08T03:08:09;101730.94;;;21.86;56.19
62617;BME280;62539;51.190;6.808;2023-05-08T03:10:40;101721.31;;;21.85;56.24
62617;BME280;62539;51.190;6.808;2023-05-08T03:13:10;101718.66;;;21.85;56.11
62617;BME280;62539;51.190;6.808;2023-05-08T03:15:45;101730.13;;;21.84;55.88
62617;BME280;62539;51.190;6.808;2023-05-08T03:18:19;101729.25;;;21.83;56.24
62617;BME280;62539;51.190;6.808;2023-05-08T03:20:52;101718.69;;;21.83;56.24
62617;BME280;62539;51.190;6.808;2023-05-08T03:23:21;101729.31;;;21.82;55.88
62617;BME280;62539;51.190;6.808;2023-05-08T03:25:50;101727.59;;;21.81;56.23
62617;BME280;62539;51.190;6.808;2023-05-08T03:28:17;101723.16;;;21.81;55.99
62617;BME280;62539;51.190;6.808;2023-05-08T03:30:44;101723.22;;;21.80;55.84
62617;BME280;62539;51.190;6.808;2023-05-08T03:33:11;101722.31;;;21.81;55.79
62617;BME280;62539;51.190;6.808;2023-05-08T03:35:38;101723.22;;;21.80;56.09
62617;BME280;62539;51.190;6.808;2023-05-08T03:38:04;101721.50;;;21.79;56.10
62617;BME280;62539;51.190;6.808;2023-05-08T03:40:32;101722.34;;;21.79;56.14
62617;BME280;62539;51.190;6.808;2023-05-08T03:43:01;101722.41;;;21.78;56.06
62617;BME280;62539;51.190;6.808;2023-05-08T03:45:27;101728.53;;;21.78;55.89
62617;BME280;62539;51.190;6.808;2023-05-08T03:47:54;101723.34;;;21.77;55.78
62617;BME280;62539;51.190;6.808;2023-05-08T03:50:20;101718.97;;;21.76;56.26
62617;BME280;62539;51.190;6.808;2023-05-08T03:52:46;101716.31;;;21.76;55.92
62617;BME280;62539;51.190;6.808;2023-05-08T03:55:12;101718.97;;;21.76;56.09
62617;BME280;62539;51.190;6.808;2023-05-08T03:57:49;101727.00;;;21.72;56.19
62617;BME280;62539;51.190;6.808;2023-05-08T04:03:31;101719.09;;;21.71;55.94
62617;BME280;62539;51.190;6.808;2023-05-08T04:06:10;101722.66;;;21.70;55.97
62617;BME280;62539;51.190;6.808;2023-05-08T04:08:48;101729.72;;;21.69;56.19
62617;BME280;62539;51.190;6.808;2023-05-08T04:11:29;101735.97;;;21.67;56.14
62617;BME280;62539;51.190;6.808;2023-05-08T04:14:02;101739.47;;;21.67;56.30
62617;BME280;62539;51.190;6.808;2023-05-08T04:16:36;101745.69;;;21.66;56.32
62617;BME280;62539;51.190;6.808;2023-05-08T04:19:09;101742.16;;;21.66;55.97
62617;BME280;62539;51.190;6.808;2023-05-08T04:21:41;101736.03;;;21.65;56.33
62617;BME280;62539;51.190;6.808;2023-05-08T04:24:11;101743.03;;;21.66;55.94
62617;BME280;62539;51.190;6.808;2023-05-08T04:26:40;101742.16;;;21.66;56.07
62617;BME280;62539;51.190;6.808;2023-05-08T04:29:07;101743.06;;;21.65;55.98
62617;BME280;62539;51.190;6.808;2023-05-08T04:31:34;101743.94;;;21.65;56.14
62617;BME280;62539;51.190;6.808;2023-05-08T04:34:01;101750.06;;;21.66;55.91
62617;BME280;62539;51.190;6.808;2023-05-08T04:36:29;101738.66;;;21.65;55.91
62617;BME280;62539;51.190;6.808;2023-05-08T04:38:55;101743.03;;;21.66;55.87
62617;BME280;62539;51.190;6.808;2023-05-08T04:41:21;101745.69;;;21.66;56.01
62617;BME280;62539;51.190;6.808;2023-05-08T04:43:47;101748.31;;;21.66;55.90
62617;BME280;62539;51.190;6.808;2023-05-08T04:46:13;101748.31;;;21.66;56.14
62617;BME280;62539;51.190;6.808;2023-05-08T04:48:38;101750.06;;;21.66;56.07
62617;BME280;62539;51.190;6.808;2023-05-08T04:51:04;101754.50;;;21.65;56.06
62617;BME280;62539;51.190;6.808;2023-05-08T04:53:29;101746.59;;;21.65;56.33
62617;BME280;62539;51.190;6.808;2023-05-08T04:55:54;101753.59;;;21.66;56.36
62617;BME280;62539;51.190;6.808;2023-05-08T04:58:21;101753.59;;;21.66;56.22
62617;BME280;62539;51.190;6.808;2023-05-08T05:00:47;101746.59;;;21.65;56.33
62617;BME280;62539;51.190;6.808;2023-05-08T05:03:12;101758.00;;;21.66;56.22
62617;BME280;62539;51.190;6.808;2023-05-08T05:05:38;101757.16;;;21.65;56.30
62617;BME280;62539;51.190;6.808;2023-05-08T05:08:04;101759.78;;;21.65;56.31
62617;BME280;62539;51.190;6.808;2023-05-08T05:10:30;101760.69;;;21.64;56.55
62617;BME280;62539;51.190;6.808;2023-05-08T05:12:55;101760.69;;;21.64;56.44
62617;BME280;62539;51.190;6.808;2023-05-08T05:15:21;101767.72;;;21.65;56.24
62617;BME280;62539;51.190;6.808;2023-05-08T05:17:46;101767.72;;;21.65;56.20
62617;BME280;62539;51.190;6.808;2023-05-08T05:20:12;101768.53;;;21.67;56.39
62617;BME280;62539;51.190;6.808;2023-05-08T05:22:39;101779.91;;;21.69;56.21
62617;BME280;62539;51.190;6.808;2023-05-08T05:25:05;101769.34;;;21.69;56.38
62617;BME280;62539;51.190;6.808;2023-05-08T05:27:33;101777.19;;;21.71;56.38
62617;BME280;62539;51.190;6.808;2023-05-08T05:30:00;101777.19;;;21.71;56.49
62617;BME280;62539;51.190;6.808;2023-05-08T05:32:26;101766.59;;;21.72;56.32
62617;BME280;62539;51.190;6.808;2023-05-08T05:34:51;101770.97;;;21.73;56.31
62617;BME280;62539;51.190;6.808;2023-05-08T05:37:17;101779.72;;;21.76;56.24
62617;BME280;62539;51.190;6.808;2023-05-08T05:39:43;101777.88;;;21.78;56.18
62617;BME280;62539;51.190;6.808;2023-05-08T05:42:09;101779.59;;;21.79;56.18
62617;BME280;62539;51.190;6.808;2023-05-08T05:44:34;101778.63;;;21.81;56.04
62617;BME280;62539;51.190;6.808;2023-05-08T05:47:00;101778.63;;;21.81;56.34
62617;BME280;62539;51.190;6.808;2023-05-08T05:49:26;101788.28;;;21.82;56.54
62617;BME280;62539;51.190;6.808;2023-05-08T05:51:51;101788.28;;;21.82;56.17
62617;BME280;62539;51.190;6.808;2023-05-08T05:54:16;101788.28;;;21.82;56.00
62617;BME280;62539;51.190;6.808;2023-05-08T05:56:42;101788.25;;;21.84;56.08
62617;BME280;62539;51.190;6.808;2023-05-08T05:59:07;101789.97;;;21.85;56.28
62617;BME280;62539;51.190;6.808;2023-05-08T06:01:33;101790.28;;;21.76;55.74
62617;BME280;62539;51.190;6.808;2023-05-08T06:03:58;101791.81;;;21.53;55.93
62617;BME280;62539;51.190;6.808;2023-05-08T06:06:23;101795.94;;;21.33;56.56
62617;BME280;62539;51.190;6.808;2023-05-08T06:08:49;101792.03;;;21.17;56.86
62617;BME280;62539;51.190;6.808;2023-05-08T06:11:15;101792.47;;;21.01;57.07
62617;BME280;62539;51.190;6.808;2023-05-08T06:13:40;101792.81;;;20.89;57.62
62617;BME280;62539;51.190;6.808;2023-05-08T06:16:06;101787.88;;;20.78;57.87
62617;BME280;62539;51.190;6.808;2023-05-08T06:18:32;101788.94;;;20.69;58.33
62617;BME280;62539;51.190;6.808;2023-05-08T06:20:58;101787.28;;;20.65;58.29
62617;BME280;62539;51.190;6.808;2023-05-08T06:23:24;101783.09;;;20.58;58.40
62617;BME280;62539;51.190;6.808;2023-05-08T06:25:51;101781.44;;;20.53;58.54
62617;BME280;62539;51.190;6.808;2023-05-08T06:28:17;101786.78;;;20.50;58.74
62617;BME280;62539;51.190;6.808;2023-05-08T06:30:43;101786.03;;;20.47;58.62
62617;BME280;62539;51.190;6.808;2023-05-08T06:33:08;101788.69;;;20.45;58.76
62617;BME280;62539;51.190;6.808;2023-05-08T06:35:35;101786.97;;;20.44;58.96
62617;BME280;62539;51.190;6.808;2023-05-08T06:38:01;101783.41;;;20.45;58.98
62617;BME280;62539;51.190;6.808;2023-05-08T06:40:27;101783.50;;;20.42;59.12
62617;BME280;62539;51.190;6.808;2023-05-08T06:42:52;101779.13;;;20.41;59.25
62617;BME280;62539;51.190;6.808;2023-05-08T06:45:18;101781.78;;;20.41;59.21
62617;BME280;62539;51.190;6.808;2023-05-08T06:47:43;101785.38;;;20.37;59.47
62617;BME280;62539;51.190;6.808;2023-05-08T06:50:09;101796.00;;;20.34;59.77
62617;BME280;62539;51.190;6.808;2023-05-08T06:52:35;101803.09;;;20.32;59.55
62617;BME280;62539;51.190;6.808;2023-05-08T06:55:00;101800.44;;;20.33;59.64
62617;BME280;62539;51.190;6.808;2023-05-08T06:57:25;101806.47;;;20.37;59.66
62617;BME280;62539;51.190;6.808;2023-05-08T06:59:53;101810.00;;;20.36;59.68
62617;BME280;62539;51.190;6.808;2023-05-08T07:02:18;101814.47;;;20.34;59.69
62617;BME280;62539;51.190;6.808;2023-05-08T07:04:44;101811.81;;;20.34;59.21
62617;BME280;62539;51.190;6.808;2023-05-08T07:07:09;101817.09;;;20.34;59.51
62617;BME280;62539;51.190;6.808;2023-05-08T07:09:35;101820.63;;;20.33;59.66
62617;BME280;62539;51.190;6.808;2023-05-08T07:12:01;101825.91;;;20.33;59.53
62617;BME280;62539;51.190;6.808;2023-05-08T07:14:26;101817.09;;;20.34;59.84
62617;BME280;62539;51.190;6.808;2023-05-08T07:16:52;101822.28;;;20.37;59.90
62617;BME280;62539;51.190;6.808;2023-05-08T07:19:18;101821.44;;;20.36;59.53
62617;BME280;62539;51.190;6.808;2023-05-08T07:21:44;101826.69;;;20.36;59.72
62617;BME280;62539;51.190;6.808;2023-05-08T07:24:10;101825.81;;;20.37;59.10
62617;BME280;62539;51.190;6.808;2023-05-08T07:26:35;101830.19;;;20.37;59.35
62617;BME280;62539;51.190;6.808;2023-05-08T07:29:01;101826.72;;;20.35;59.52
62617;BME280;62539;51.190;6.808;2023-05-08T07:31:27;101835.50;;;20.35;59.59
62617;BME280;62539;51.190;6.808;2023-05-08T07:33:52;101838.16;;;20.34;59.01
62617;BME280;62539;51.190;6.808;2023-05-08T07:36:17;101836.53;;;20.30;59.15
62617;BME280;62539;51.190;6.808;2023-05-08T07:38:43;101839.97;;;20.32;59.37
62617;BME280;62539;51.190;6.808;2023-05-08T07:41:08;101843.44;;;20.34;59.44
62617;BME280;62539;51.190;6.808;2023-05-08T07:43:34;101846.06;;;20.35;59.66
62617;BME280;62539;51.190;6.808;2023-05-08T07:45:59;101843.34;;;20.38;59.43
62617;BME280;62539;51.190;6.808;2023-05-08T07:48:25;101845.00;;;20.42;59.23
62617;BME280;62539;51.190;6.808;2023-05-08T07:50:50;101850.22;;;20.44;59.37
62617;BME280;62539;51.190;6.808;2023-05-08T07:53:16;101848.41;;;20.46;59.11
62617;BME280;62539;51.190;6.808;2023-05-08T07:55:41;101837.78;;;20.49;59.49
62617;BME280;62539;51.190;6.808;2023-05-08T07:58:07;101839.44;;;20.53;59.14
62617;BME280;62539;51.190;6.808;2023-05-08T08:00:32;101841.09;;;20.58;59.60
62617;BME280;62539;51.190;6.808;2023-05-08T08:02:58;101848.00;;;20.62;59.40
62617;BME280;62539;51.190;6.808;2023-05-08T08:05:24;101840.94;;;20.64;59.01
62617;BME280;62539;51.190;6.808;2023-05-08T08:07:49;101833.75;;;20.69;59.05
62617;BME280;62539;51.190;6.808;2023-05-08T08:10:15;101836.38;;;20.70;59.00
62617;BME280;62539;51.190;6.808;2023-05-08T08:12:40;101840.59;;;20.76;58.66
62617;BME280;62539;51.190;6.808;2023-05-08T08:15:06;101841.44;;;20.80;58.64
62617;BME280;62539;51.190;6.808;2023-05-08T08:17:31;101842.16;;;20.85;58.68
62617;BME280;62539;51.190;6.808;2023-05-08T08:19:57;101842.00;;;20.91;58.75
62617;BME280;62539;51.190;6.808;2023-05-08T08:22:23;101848.00;;;20.96;58.60
62617;BME280;62539;51.190;6.808;2023-05-08T08:24:50;101848.75;;;21.02;58.69
62617;BME280;62539;51.190;6.808;2023-05-08T08:27:15;101841.59;;;21.05;58.55
62617;BME280;62539;51.190;6.808;2023-05-08T08:29:40;101841.44;;;21.11;58.72
62617;BME280;62539;51.190;6.808;2023-05-08T08:32:06;101836.88;;;21.17;58.40
62617;BME280;62539;51.190;6.808;2023-05-08T08:34:34;101838.53;;;21.21;58.57
62617;BME280;62539;51.190;6.808;2023-05-08T08:37:00;101841.91;;;21.26;58.22
62617;BME280;62539;51.190;6.808;2023-05-08T08:39:26;101834.75;;;21.29;58.17
62617;BME280;62539;51.190;6.808;2023-05-08T08:41:51;101838.19;;;21.32;57.86
62617;BME280;62539;51.190;6.808;2023-05-08T08:44:16;101833.72;;;21.35;57.81
62617;BME280;62539;51.190;6.808;2023-05-08T08:46:46;101837.06;;;21.40;57.84
62617;BME280;62539;51.190;6.808;2023-05-08T08:49:17;101842.19;;;21.45;57.95
62617;BME280;62539;51.190;6.808;2023-05-08T08:51:53;101840.34;;;21.49;57.99
62617;BME280;62539;51.190;6.808;2023-05-08T08:54:23;101835.84;;;21.52;57.18
62617;BME280;62539;51.190;6.808;2023-05-08T08:56:53;101838.44;;;21.54;57.00
62617;BME280;62539;51.190;6.808;2023-05-08T08:59:22;101841.03;;;21.55;57.56
62617;BME280;62539;51.190;6.808;2023-05-08T09:01:55;101846.19;;;21.60;57.62
62617;BME280;62539;51.190;6.808;2023-05-08T09:04:23;101853.16;;;21.63;57.50
62617;BME280;62539;51.190;6.808;2023-05-08T09:06:52;101845.94;;;21.69;57.23
62617;BME280;62539;51.190;6.808;2023-05-08T09:09:18;101846.66;;;21.75;57.21
62617;BME280;62539;51.190;6.808;2023-05-08T09:11:45;101847.41;;;21.78;56.63
62617;BME280;62539;51.190;6.808;2023-05-08T09:14:11;101836.72;;;21.83;56.72
62617;BME280;62539;51.190;6.808;2023-05-08T09:16:36;101838.44;;;21.84;57.06
62617;BME280;62539;51.190;6.808;2023-05-08T09:19:02;101840.88;;;21.90;56.99
62617;BME280;62539;51.190;6.808;2023-05-08T09:21:28;101843.34;;;21.95;56.82
62617;BME280;62539;51.190;6.808;2023-05-08T09:23:58;101841.44;;;22.00;56.55
62617;BME280;62539;51.190;6.808;2023-05-08T09:26:31;101847.41;;;22.07;56.50
62617;BME280;62539;51.190;6.808;2023-05-08T09:29:15;101839.38;;;22.10;56.01
62617;BME280;62539;51.190;6.808;2023-05-08T09:31:45;101846.28;;;22.14;56.14
62617;BME280;62539;51.190;6.808;2023-05-08T09:34:28;101846.28;;;22.14;56.12
62617;BME280;62539;51.190;6.808;2023-05-08T09:37:09;101840.09;;;22.15;56.42
62617;BME280;62539;51.190;6.808;2023-05-08T09:39:36;101846.09;;;22.20;56.37
62617;BME280;62539;51.190;6.808;2023-05-08T09:44:49;101844.97;;;22.27;56.03
62617;BME280;62539;51.190;6.808;2023-05-08T09:47:20;101846.50;;;22.35;55.52
62617;BME280;62539;51.190;6.808;2023-05-08T09:50:06;101851.69;;;22.38;55.62
62617;BME280;62539;51.190;6.808;2023-05-08T09:52:36;101849.75;;;22.43;55.39
62617;BME280;62539;51.190;6.808;2023-05-08T09:55:05;101845.22;;;22.46;55.13
62617;BME280;62539;51.190;6.808;2023-05-08T09:57:34;101846.00;;;22.50;54.75
62617;BME280;62539;51.190;6.808;2023-05-08T10:00:09;101848.53;;;22.53;54.59
62617;BME280;62539;51.190;6.808;2023-05-08T10:02:38;101849.25;;;22.58;54.48
62617;BME280;62539;51.190;6.808;2023-05-08T10:05:32;101843.75;;;22.65;55.01
62617;BME280;62539;51.190;6.808;2023-05-08T10:10:43;101835.28;;;22.80;54.08
62617;BME280;62539;51.190;6.808;2023-05-08T10:13:08;101827.97;;;22.87;54.21
62617;BME280;62539;51.190;6.808;2023-05-08T10:15:37;101833.91;;;22.94;53.81
62617;BME280;62539;51.190;6.808;2023-05-08T10:18:06;101824.94;;;22.98;53.30
62617;BME280;62539;51.190;6.808;2023-05-08T10:20:38;101821.25;;;23.02;53.37
62617;BME280;62539;51.190;6.808;2023-05-08T10:23:07;101819.31;;;23.07;53.16
62617;BME280;62539;51.190;6.808;2023-05-08T10:25:41;101818.19;;;23.13;52.88
62617;BME280;62539;51.190;6.808;2023-05-08T10:28:31;101813.56;;;23.19;53.04
62617;BME280;62539;51.190;6.808;2023-05-08T10:31:06;101810.72;;;23.26;52.77
62617;BME280;62539;51.190;6.808;2023-05-08T10:33:34;101813.22;;;23.29;52.52
62617;BME280;62539;51.190;6.808;2023-05-08T10:36:05;101812.19;;;23.33;52.58
62617;BME280;62539;51.190;6.808;2023-05-08T10:38:31;101819.09;;;23.37;52.53
62617;BME280;62539;51.190;6.808;2023-05-08T10:40:59;101807.47;;;23.41;51.81
62617;BME280;62539;51.190;6.808;2023-05-08T10:43:27;101804.63;;;23.46;51.72
62617;BME280;62539;51.190;6.808;2023-05-08T10:45:55;101807.09;;;23.51;51.61
62617;BME280;62539;51.190;6.808;2023-05-08T10:51:46;101820.09;;;23.57;51.20
62617;BME280;62539;51.190;6.808;2023-05-08T10:54:33;101809.44;;;23.58;50.42
62617;BME280;62539;51.190;6.808;2023-05-08T10:57:10;101816.41;;;23.61;50.33
62617;BME280;62539;51.190;6.808;2023-05-08T10:59:36;101810.06;;;23.65;50.46
62617;BME280;62539;51.190;6.808;2023-05-08T11:02:04;101812.59;;;23.68;50.89
62617;BME280;62539;51.190;6.808;2023-05-08T11:04:31;101811.56;;;23.72;50.72
62617;BME280;62539;51.190;6.808;2023-05-08T11:06:57;101806.25;;;23.72;49.93
62617;BME280;62539;51.190;6.808;2023-05-08T11:15:00;101803.22;;;23.82;49.39
62617;BME280;62539;51.190;6.808;2023-05-08T11:17:29;101804.03;;;23.84;49.83
62617;BME280;62539;51.190;6.808;2023-05-08T11:19:59;101797.66;;;23.88;49.70
62617;BME280;62539;51.190;6.808;2023-05-08T11:22:33;101800.19;;;23.91;50.02
62617;BME280;62539;51.190;6.808;2023-05-08T11:25:19;101795.63;;;23.95;50.06
62617;BME280;62539;51.190;6.808;2023-05-08T11:28:09;101794.53;;;24.00;49.79
62617;BME280;62539;51.190;6.808;2023-05-08T11:30:36;101786.31;;;24.06;49.64
62617;BME280;62539;51.190;6.808;2023-05-08T11:40:56;101792.78;;;24.21;49.20
62617;BME280;62539;51.190;6.808;2023-05-08T11:46:18;101796.81;;;24.30;49.75
62617;BME280;62539;51.190;6.808;2023-05-08T11:48:45;101792.13;;;24.37;49.69
62617;BME280;62539;51.190;6.808;2023-05-08T11:51:10;101793.72;;;24.41;49.31
62617;BME280;62539;51.190;6.808;2023-05-08T11:53:37;101789.88;;;24.48;49.26
62617;BME280;62539;51.190;6.808;2023-05-08T11:56:03;101787.00;;;24.53;49.18
62617;BME280;62539;51.190;6.808;2023-05-08T11:58:29;101792.16;;;24.56;48.89
62617;BME280;62539;51.190;6.808;2023-05-08T12:00:55;101785.13;;;24.55;48.68
62617;BME280;62539;51.190;6.808;2023-05-08T12:03:22;101784.34;;;24.53;48.66
62617;BME280;62539;51.190;6.808;2023-05-08T12:05:55;101781.78;;;24.51;48.72
62617;BME280;62539;51.190;6.808;2023-05-08T12:08:22;101779.16;;;24.50;48.56
62617;BME280;62539;51.190;6.808;2023-05-08T12:10:49;101786.28;;;24.49;48.63
62617;BME280;62539;51.190;6.808;2023-05-08T12:13:26;101775.81;;;24.46;48.78
62617;BME280;62539;51.190;6.808;2023-05-08T12:15:58;101781.25;;;24.43;49.13
62617;BME280;62539;51.190;6.808;2023-05-08T12:18:26;101788.47;;;24.40;49.44
62617;BME280;62539;51.190;6.808;2023-05-08T12:20:58;101792.16;;;24.35;49.49
62617;BME280;62539;51.190;6.808;2023-05-08T12:23:26;101787.94;;;24.31;49.92
62617;BME280;62539;51.190;6.808;2023-05-08T12:25:53;101787.13;;;24.29;50.04
62617;BME280;62539;51.190;6.808;2023-05-08T12:28:22;101791.63;;;24.27;49.63
62617;BME280;62539;51.190;6.808;2023-05-08T12:30:48;101792.66;;;24.25;49.64
62617;BME280;62539;51.190;6.808;2023-05-08T12:33:14;101784.75;;;24.23;49.40
62617;BME280;62539;51.190;6.808;2023-05-08T12:35:40;101784.75;;;24.23;49.68
62617;BME280;62539;51.190;6.808;2023-05-08T12:38:07;101781.28;;;24.21;49.44
62617;BME280;62539;51.190;6.808;2023-05-08T12:40:39;101784.88;;;24.20;49.53
62617;BME280;62539;51.190;6.808;2023-05-08T12:43:06;101776.91;;;24.20;49.73
62617;BME280;62539;51.190;6.808;2023-05-08T12:45:34;101778.66;;;24.21;49.77
62617;BME280;62539;51.190;6.808;2023-05-08T12:48:05;101763.53;;;24.23;49.77
62617;BME280;62539;51.190;6.808;2023-05-08T12:50:36;101775.72;;;24.27;49.57
62617;BME280;62539;51.190;6.808;2023-05-08T12:53:05;101772.09;;;24.30;49.81
62617;BME280;62539;51.190;6.808;2023-05-08T12:55:33;101767.59;;;24.32;49.96
62617;BME280;62539;51.190;6.808;2023-05-08T12:58:11;101764.00;;;24.33;50.39
62617;BME280;62539;51.190;6.808;2023-05-08T13:00:46;101766.59;;;24.34;49.95
62617;BME280;62539;51.190;6.808;2023-05-08T13:03:20;101763.94;;;24.34;50.31
62617;BME280;62539;51.190;6.808;2023-05-08T13:05:49;101762.94;;;24.37;50.16
62617;BME280;62539;51.190;6.808;2023-05-08T13:08:14;101764.59;;;24.40;49.70
62617;BME280;62539;51.190;6.808;2023-05-08T13:10:47;101752.13;;;24.42;50.17
62617;BME280;62539;51.190;6.808;2023-05-08T13:13:21;101760.06;;;24.42;49.89
62617;BME280;62539;51.190;6.808;2023-05-08T13:15:49;101753.84;;;24.43;50.26
62617;BME280;62539;51.190;6.808;2023-05-08T13:18:17;101749.34;;;24.45;50.33
62617;BME280;62539;51.190;6.808;2023-05-08T13:20:44;101748.41;;;24.46;50.33
62617;BME280;62539;51.190;6.808;2023-05-08T13:23:10;101751.84;;;24.48;50.07
62617;BME280;62539;51.190;6.808;2023-05-08T13:25:37;101750.00;;;24.50;49.65
62617;BME280;62539;51.190;6.808;2023-05-08T13:28:04;101747.28;;;24.51;49.84
62617;BME280;62539;51.190;6.808;2023-05-08T13:30:31;101748.88;;;24.56;49.80
62617;BME280;62539;51.190;6.808;2023-05-08T13:32:57;101745.06;;;24.61;49.88